Stations météo

réclame
Mon MeteoGroup
Cairngorm, Grande-Bretagne (3065): Température de l'air & dewpoint: 19.11.2017 01:00:00 - 25.11.2017 01:00:00 (GMT)Cairngorm, Grande-Bretagne (3065): Vitesse du vent & gusts: 19.11.2017 01:00:00 - 25.11.2017 01:00:00 (GMT)Cairngorm, Grande-Bretagne (3065): Direction du vent: 19.11.2017 01:00:00 - 25.11.2017 01:00:00 (GMT)
Date & Time tt [°C] td [°C] ff [km/h] ff [knt] fx [km/h] fx [knt] dd
25.11.2017 01:00:00 -5,9 -6,3 81 44 104 56 WNW
25.11.2017 00:00:00 -5,6 -6,0 68 37 96 52 W
24.11.2017 23:00:00 -6,2 -6,6 78 42 102 55 W
24.11.2017 22:00:00 -6,1 -6,5 81 44 106 57 W
24.11.2017 21:00:00 -6,0 -6,5 76 41 102 55 W
24.11.2017 20:00:00 -6,7 -7,2 87 47 104 56 W
24.11.2017 19:00:00 -6,3 -6,7 78 42 96 52 W
24.11.2017 18:00:00 -6,4 -6,9 76 41 102 55 W
24.11.2017 17:00:00 -6,9 -7,4 78 42 107 58 W
24.11.2017 16:00:00 -6,9 -7,4 80 43 104 56 W
24.11.2017 15:00:00 -7,1 -7,6 63 34 96 52 W
24.11.2017 14:00:00 -7,1 -7,7 63 34 104 56 W
24.11.2017 13:00:00 -7,0 -7,5 57 31 83 45 W
24.11.2017 12:00:00 -5,9 -6,3 28 15 81 44 WNW
24.11.2017 11:00:00 -6,3 -6,8 13 7 54 29 NNE
24.11.2017 10:00:00 -7,1 -7,6 41 22 - - W
24.11.2017 09:00:00 -6,7 -7,2 55 30 91 49 W
24.11.2017 08:00:00 -7,2 -7,8 54 29 81 44 W
24.11.2017 07:00:00 -7,4 -8,0 37 20 74 40 W
24.11.2017 06:00:00 -7,2 -7,7 55 30 80 43 W
24.11.2017 05:00:00 -7,2 -7,8 61 33 85 46 W
24.11.2017 04:00:00 -6,8 -7,4 68 37 87 47 WNW
24.11.2017 03:00:00 -7,0 -7,6 61 33 76 41 W
24.11.2017 02:00:00 -6,0 -6,5 63 34 89 48 WNW
24.11.2017 01:00:00 -6,5 -7,0 72 39 83 45 W
24.11.2017 00:00:00 -6,3 -6,7 65 35 78 42 W
23.11.2017 23:00:00 -6,6 -7,0 52 28 68 37 W
23.11.2017 22:00:00 -6,3 -6,8 59 32 78 42 WNW
23.11.2017 21:00:00 -5,8 -6,3 65 35 81 44 W
23.11.2017 20:00:00 -6,0 -6,4 67 36 81 44 W
23.11.2017 19:00:00 -5,7 -6,2 55 30 87 47 WNW
23.11.2017 18:00:00 -5,8 -6,3 67 36 87 47 WNW
23.11.2017 17:00:00 -5,7 -6,1 76 41 106 57 WNW
23.11.2017 16:00:00 -5,6 -6,0 78 42 96 52 WNW
23.11.2017 15:00:00 -5,7 -6,1 76 41 - - WNW
23.11.2017 14:00:00 -5,7 -6,1 67 36 85 46 WNW
23.11.2017 13:00:00 -5,8 -6,2 63 34 74 40 WNW
23.11.2017 12:00:00 -5,6 -6,0 55 30 67 36 NW
23.11.2017 11:00:00 -5,7 -6,1 52 28 72 39 NW
23.11.2017 10:00:00 -5,7 -6,1 63 34 89 48 WNW
23.11.2017 09:00:00 -6,2 -6,7 65 35 76 41 W
23.11.2017 08:00:00 -5,9 -6,4 57 31 68 37 W
23.11.2017 07:00:00 -6,0 -6,4 57 31 63 34 W
23.11.2017 06:00:00 -6,2 -6,6 46 25 54 29 W
23.11.2017 05:00:00 -6,2 -6,7 42 23 52 28 WNW
23.11.2017 04:00:00 -5,0 -5,3 31 17 - - WNW
23.11.2017 03:00:00 -4,8 -5,1 15 8 - - WNW
23.11.2017 02:00:00 -4,2 -4,4 5 3 - - NW
23.11.2017 01:00:00 -3,7 -3,8 5 3 - - NE
23.11.2017 00:00:00 -3,5 -3,6 8 4 - - E
22.11.2017 23:00:00 -3,0 -3,1 5 3 - - NW
22.11.2017 22:00:00 -3,4 -3,6 8 4 - - E
22.11.2017 21:00:00 -3,8 -4,0 8 4 - - ENE
22.11.2017 20:00:00 -3,6 -3,7 11 6 - - E
22.11.2017 19:00:00 -3,8 -3,9 8 4 - - E
22.11.2017 18:00:00 -3,6 -3,8 9 5 - - ENE
22.11.2017 17:00:00 -3,9 -4,1 9 5 - - NE
22.11.2017 16:00:00 -3,7 -3,9 11 6 - - N
22.11.2017 15:00:00 -3,1 -3,1 5 3 - - NNW
22.11.2017 14:00:00 -2,6 -2,6 5 3 - - W
22.11.2017 13:00:00 -2,4 -2,4 5 3 - - SW
22.11.2017 12:00:00 -2,7 -2,7 13 7 46 25 SW
22.11.2017 11:00:00 -2,1 -2,3 31 17 50 27 WSW
22.11.2017 10:00:00 -2,7 -2,7 21 11 55 30 WSW
22.11.2017 09:00:00 -2,6 -2,6 18 10 67 36 SW
22.11.2017 08:00:00 -2,3 -2,3 50 27 68 37 W
22.11.2017 07:00:00 -2,0 -2,0 59 32 78 42 W
22.11.2017 06:00:00 -1,9 -1,9 61 33 85 46 W
22.11.2017 05:00:00 -0,3 -0,3 68 37 93 50 W
22.11.2017 04:00:00 -0,7 -0,7 65 35 - - W
22.11.2017 03:00:00 -0,3 -0,3 65 35 91 49 W
22.11.2017 02:00:00 0,0 0,0 63 34 85 46 W
22.11.2017 01:00:00 0,1 0,1 63 34 93 50 W
22.11.2017 00:00:00 0,7 0,7 67 36 102 55 W
21.11.2017 23:00:00 1,4 1,4 59 32 78 42 WNW
21.11.2017 22:00:00 1,5 1,5 46 25 54 29 W
21.11.2017 21:00:00 1,7 1,7 26 14 117 63 W
21.11.2017 20:00:00 4,7 4,7 93 50 131 71 WSW
21.11.2017 19:00:00 4,5 4,5 80 43 122 66 WSW
21.11.2017 18:00:00 3,8 3,8 57 31 89 48 SW
21.11.2017 17:00:00 2,8 2,8 52 28 70 38 SW
21.11.2017 16:00:00 2,4 2,4 44 24 55 30 SSW
21.11.2017 15:00:00 3,0 3,0 37 20 54 29 SW
21.11.2017 14:00:00 2,5 2,5 44 24 54 29 SSW
21.11.2017 13:00:00 2,1 2,1 9 5 - - SSW
21.11.2017 12:00:00 2,1 2,1 8 4 - - NE
21.11.2017 11:00:00 1,6 1,6 5 3 - - NNE
21.11.2017 10:00:00 0,3 0,3 5 3 - - W
21.11.2017 09:00:00 0,1 0,1 16 9 - - SW
21.11.2017 08:00:00 0,1 0,1 18 10 - - SSW
21.11.2017 07:00:00 0,1 0,1 16 9 - - SSW
21.11.2017 06:00:00 0,1 0,1 16 9 - - SSW
21.11.2017 05:00:00 0,1 0,1 22 12 - - S
21.11.2017 04:00:00 0,1 0,1 26 14 - - S
21.11.2017 03:00:00 0,1 0,1 29 16 48 26 S
21.11.2017 02:00:00 -0,1 -0,1 28 15 - - S
21.11.2017 01:00:00 0,0 0,0 24 13 50 27 S
21.11.2017 00:00:00 -0,2 -0,2 28 15 - - S
20.11.2017 23:00:00 -0,2 -0,2 26 14 - - S
20.11.2017 22:00:00 -0,4 -0,4 28 15 - - S
20.11.2017 21:00:00 -0,5 -0,5 22 12 - - S
20.11.2017 20:00:00 -0,4 -0,4 22 12 - - S
20.11.2017 19:00:00 -0,3 -0,3 21 11 - - S
20.11.2017 18:00:00 -0,7 -0,7 16 9 - - S
20.11.2017 17:00:00 -0,3 -0,3 24 13 - - S
20.11.2017 16:00:00 -0,6 -0,6 18 10 - - SSE
20.11.2017 15:00:00 -0,3 -0,3 16 9 - - S
20.11.2017 14:00:00 0,1 0,1 11 6 - - SE
20.11.2017 13:00:00 0,0 0,0 8 4 - - S
20.11.2017 12:00:00 -0,4 -0,4 11 6 - - SSW
20.11.2017 11:00:00 -0,9 -0,9 13 7 - - S
20.11.2017 10:00:00 -1,1 -1,1 13 7 - - SSW
20.11.2017 09:00:00 -1,0 -1,0 18 10 - - SSW
20.11.2017 08:00:00 -1,5 -1,5 24 13 - - S
20.11.2017 07:00:00 -2,0 -2,0 26 14 50 27 SSW
20.11.2017 06:00:00 -2,1 -2,1 26 14 - - S
20.11.2017 05:00:00 -2,9 -3,0 28 15 - - S
20.11.2017 04:00:00 -2,3 -2,3 22 12 - - SSW
20.11.2017 03:00:00 -2,2 -2,2 22 12 - - SSW
20.11.2017 02:00:00 -1,8 -1,8 28 15 - - SW
20.11.2017 01:00:00 -2,1 -2,1 15 8 - - SW
20.11.2017 00:00:00 -2,6 -2,7 21 11 - - SSW
19.11.2017 23:00:00 -3,4 -3,5 18 10 - - S
19.11.2017 22:00:00 -3,8 -3,9 11 6 - - SSW
19.11.2017 21:00:00 -4,0 -4,1 5 3 - - S
19.11.2017 20:00:00 -3,8 -3,9 5 3 - - W
19.11.2017 19:00:00 -3,8 -4,0 5 3 - - SSW
19.11.2017 18:00:00 -4,2 -4,4 22 12 - - W
19.11.2017 17:00:00 -4,6 -4,9 22 12 - - W
19.11.2017 16:00:00 -4,6 -4,9 21 11 - - W
19.11.2017 15:00:00 -4,5 -4,7 24 13 - - W
19.11.2017 14:00:00 -4,6 -4,8 24 13 - - WNW
19.11.2017 13:00:00 -4,2 -4,5 39 21 - - WNW
19.11.2017 12:00:00 -3,5 -3,7 39 21 - - WNW
19.11.2017 11:00:00 -2,8 -2,9 37 20 - - WNW
19.11.2017 10:00:00 -3,8 -4,0 37 20 48 26 WNW
19.11.2017 09:00:00 -3,9 -4,1 44 24 55 30 WNW
19.11.2017 08:00:00 -4,0 -4,2 46 25 57 31 WNW
19.11.2017 07:00:00 -3,6 -3,8 50 27 68 37 NW
19.11.2017 06:00:00 -3,9 -4,1 57 31 70 38 WNW
19.11.2017 05:00:00 -3,1 -3,4 55 30 67 36 WNW
19.11.2017 04:00:00 -3,8 -4,0 59 32 72 39 WNW
19.11.2017 03:00:00 -4,1 -4,3 61 33 74 40 WNW
19.11.2017 02:00:00 -3,7 -3,9 59 32 76 41 NW
19.11.2017 01:00:00 -3,3 -3,5 67 36 80 43 NW

tt = Température de l'air
td = dewpoint
ff = Vitesse du vent
fx = gusts
dd = Direction du vent

stations d'obs. à proximité